sensor_id;sensor_type;location;lat;lon;timestamp;pressure;altitude;pressure_sealevel;temperature;humidity
23253;BME280;11795;47.054;15.408;2023-03-07T00:00:00;96320;;;6.0;73.5
23253;BME280;11795;47.054;15.408;2023-03-07T00:02:00;96320;;;6.1;73.3
23253;BME280;11795;47.054;15.408;2023-03-07T00:04:00;96320;;;6.1;73.0
23253;BME280;11795;47.054;15.408;2023-03-07T00:06:01;96320;;;6.0;73.3
23253;BME280;11795;47.054;15.408;2023-03-07T00:08:00;96320;;;6.1;72.7
23253;BME280;11795;47.054;15.408;2023-03-07T00:10:00;96330;;;6.0;73.1
23253;BME280;11795;47.054;15.408;2023-03-07T00:12:00;96330;;;6.1;73.1
23253;BME280;11795;47.054;15.408;2023-03-07T00:14:00;96330;;;6.0;73.2
23253;BME280;11795;47.054;15.408;2023-03-07T00:16:01;96340;;;6.0;73.6
23253;BME280;11795;47.054;15.408;2023-03-07T00:18:00;96340;;;6.1;73.2
23253;BME280;11795;47.054;15.408;2023-03-07T00:20:00;96340;;;5.9;73.9
23253;BME280;11795;47.054;15.408;2023-03-07T00:22:00;96330;;;6.1;73.9
23253;BME280;11795;47.054;15.408;2023-03-07T00:24:00;96330;;;6.0;73.9
23253;BME280;11795;47.054;15.408;2023-03-07T00:26:03;96330;;;5.9;74.4
23253;BME280;11795;47.054;15.408;2023-03-07T00:28:00;96330;;;6.0;74.1
23253;BME280;11795;47.054;15.408;2023-03-07T00:30:00;96330;;;5.9;74.8
23253;BME280;11795;47.054;15.408;2023-03-07T00:32:00;96330;;;5.9;74.9
23253;BME280;11795;47.054;15.408;2023-03-07T00:34:01;96330;;;5.9;74.7
23253;BME280;11795;47.054;15.408;2023-03-07T00:36:02;96320;;;5.8;75.0
23253;BME280;11795;47.054;15.408;2023-03-07T00:38:01;96310;;;6.0;74.5
23253;BME280;11795;47.054;15.408;2023-03-07T00:40:00;96310;;;5.8;75.1
23253;BME280;11795;47.054;15.408;2023-03-07T00:42:00;96310;;;5.9;75.0
23253;BME280;11795;47.054;15.408;2023-03-07T00:44:00;96310;;;5.8;74.8
23253;BME280;11795;47.054;15.408;2023-03-07T00:46:01;96300;;;5.8;75.2
23253;BME280;11795;47.054;15.408;2023-03-07T00:48:00;96290;;;5.9;74.6
23253;BME280;11795;47.054;15.408;2023-03-07T00:50:00;96290;;;5.7;75.2
23253;BME280;11795;47.054;15.408;2023-03-07T00:52:00;96290;;;5.8;75.1
23253;BME280;11795;47.054;15.408;2023-03-07T00:54:00;96290;;;5.8;75.1
23253;BME280;11795;47.054;15.408;2023-03-07T00:56:02;96280;;;5.7;75.5
23253;BME280;11795;47.054;15.408;2023-03-07T00:58:00;96290;;;5.8;75.0
23253;BME280;11795;47.054;15.408;2023-03-07T01:00:00;96290;;;5.6;76.0
23253;BME280;11795;47.054;15.408;2023-03-07T01:02:00;96290;;;5.7;75.6
23253;BME280;11795;47.054;15.408;2023-03-07T01:04:01;96290;;;5.7;75.6
23253;BME280;11795;47.054;15.408;2023-03-07T01:06:04;96290;;;5.6;76.2
23253;BME280;11795;47.054;15.408;2023-03-07T01:08:00;96290;;;5.8;75.7
23253;BME280;11795;47.054;15.408;2023-03-07T01:10:00;96290;;;5.6;76.3
23253;BME280;11795;47.054;15.408;2023-03-07T01:12:00;96290;;;5.6;76.3
23253;BME280;11795;47.054;15.408;2023-03-07T01:14:03;96290;;;5.6;76.3
23253;BME280;11795;47.054;15.408;2023-03-07T01:16:07;96290;;;5.5;76.7
23253;BME280;11795;47.054;15.408;2023-03-07T01:18:00;96290;;;5.7;76.4
23253;BME280;11795;47.054;15.408;2023-03-07T01:20:01;96290;;;5.5;77.2
23253;BME280;11795;47.054;15.408;2023-03-07T01:22:02;96280;;;5.5;77.4
23253;BME280;11795;47.054;15.408;2023-03-07T01:24:00;96290;;;5.5;77.2
23253;BME280;11795;47.054;15.408;2023-03-07T01:26:00;96290;;;5.5;77.5
23253;BME280;11795;47.054;15.408;2023-03-07T01:28:03;96280;;;5.6;76.9
23253;BME280;11795;47.054;15.408;2023-03-07T01:30:00;96280;;;5.5;77.2
23253;BME280;11795;47.054;15.408;2023-03-07T01:32:00;96280;;;5.5;77.3
23253;BME280;11795;47.054;15.408;2023-03-07T01:34:01;96270;;;5.5;77.1
23253;BME280;11795;47.054;15.408;2023-03-07T01:36:01;96260;;;5.4;77.6
23253;BME280;11795;47.054;15.408;2023-03-07T01:38:00;96260;;;5.6;76.8
23253;BME280;11795;47.054;15.408;2023-03-07T01:40:00;96260;;;5.4;77.6
23253;BME280;11795;47.054;15.408;2023-03-07T01:42:00;96270;;;5.5;77.8
23253;BME280;11795;47.054;15.408;2023-03-07T01:44:03;96270;;;5.5;77.6
23253;BME280;11795;47.054;15.408;2023-03-07T01:48:00;96260;;;5.5;77.3
23253;BME280;11795;47.054;15.408;2023-03-07T01:50:04;96260;;;5.4;77.9
23253;BME280;11795;47.054;15.408;2023-03-07T01:52:04;96260;;;5.4;77.9
23253;BME280;11795;47.054;15.408;2023-03-07T01:54:01;96260;;;5.4;77.6
23253;BME280;11795;47.054;15.408;2023-03-07T01:56:00;96260;;;5.3;78.0
23253;BME280;11795;47.054;15.408;2023-03-07T01:58:03;96260;;;5.5;77.5
23253;BME280;11795;47.054;15.408;2023-03-07T02:00:04;96260;;;5.3;78.0
23253;BME280;11795;47.054;15.408;2023-03-07T02:02:04;96260;;;5.3;78.1
23253;BME280;11795;47.054;15.408;2023-03-07T02:04:06;96260;;;5.4;77.8
23253;BME280;11795;47.054;15.408;2023-03-07T02:06:04;96260;;;5.3;78.0
23253;BME280;11795;47.054;15.408;2023-03-07T02:08:01;96260;;;5.5;77.3
23253;BME280;11795;47.054;15.408;2023-03-07T02:10:01;96250;;;5.3;77.7
23253;BME280;11795;47.054;15.408;2023-03-07T02:12:00;96260;;;5.3;77.9
23253;BME280;11795;47.054;15.408;2023-03-07T02:14:00;96250;;;5.3;77.6
23253;BME280;11795;47.054;15.408;2023-03-07T02:16:01;96250;;;5.2;77.9
23253;BME280;11795;47.054;15.408;2023-03-07T02:18:01;96240;;;5.4;77.2
23253;BME280;11795;47.054;15.408;2023-03-07T02:20:11;96250;;;5.2;77.7
23253;BME280;11795;47.054;15.408;2023-03-07T02:22:07;96240;;;5.2;77.8
23253;BME280;11795;47.054;15.408;2023-03-07T02:24:05;96240;;;5.3;77.3
23253;BME280;11795;47.054;15.408;2023-03-07T02:26:06;96240;;;5.2;77.9
23253;BME280;11795;47.054;15.408;2023-03-07T02:28:01;96230;;;5.4;77.1
23253;BME280;11795;47.054;15.408;2023-03-07T02:30:01;96230;;;5.2;77.6
23253;BME280;11795;47.054;15.408;2023-03-07T02:32:00;96230;;;5.2;77.7
23253;BME280;11795;47.054;15.408;2023-03-07T02:34:01;96230;;;5.3;77.1
23253;BME280;11795;47.054;15.408;2023-03-07T02:36:03;96240;;;5.2;77.5
23253;BME280;11795;47.054;15.408;2023-03-07T02:38:01;96240;;;5.4;76.7
23253;BME280;11795;47.054;15.408;2023-03-07T02:40:04;96230;;;5.3;77.1
23253;BME280;11795;47.054;15.408;2023-03-07T02:42:04;96230;;;5.3;77.2
23253;BME280;11795;47.054;15.408;2023-03-07T02:44:00;96230;;;5.4;76.7
23253;BME280;11795;47.054;15.408;2023-03-07T02:46:00;96230;;;5.3;77.0
23253;BME280;11795;47.054;15.408;2023-03-07T02:48:00;96240;;;5.5;76.4
23253;BME280;11795;47.054;15.408;2023-03-07T02:50:00;96230;;;5.3;76.9
23253;BME280;11795;47.054;15.408;2023-03-07T02:52:00;96240;;;5.3;77.1
23253;BME280;11795;47.054;15.408;2023-03-07T02:54:00;96240;;;5.4;76.8
23253;BME280;11795;47.054;15.408;2023-03-07T02:56:00;96240;;;5.3;77.3
23253;BME280;11795;47.054;15.408;2023-03-07T02:58:00;96240;;;5.5;76.9
23253;BME280;11795;47.054;15.408;2023-03-07T03:00:00;96240;;;5.3;77.4
23253;BME280;11795;47.054;15.408;2023-03-07T03:02:01;96240;;;5.3;77.7
23253;BME280;11795;47.054;15.408;2023-03-07T03:04:00;96240;;;5.3;77.3
23253;BME280;11795;47.054;15.408;2023-03-07T03:06:00;96240;;;5.3;77.9
23253;BME280;11795;47.054;15.408;2023-03-07T03:08:00;96240;;;5.5;77.2
23253;BME280;11795;47.054;15.408;2023-03-07T03:10:00;96240;;;5.3;77.5
23253;BME280;11795;47.054;15.408;2023-03-07T03:12:00;96240;;;5.3;77.7
23253;BME280;11795;47.054;15.408;2023-03-07T03:14:00;96240;;;5.3;77.3
23253;BME280;11795;47.054;15.408;2023-03-07T03:16:01;96240;;;5.2;78.1
23253;BME280;11795;47.054;15.408;2023-03-07T03:18:00;96250;;;5.3;78.1
23253;BME280;11795;47.054;15.408;2023-03-07T03:20:00;96250;;;5.2;78.4
23253;BME280;11795;47.054;15.408;2023-03-07T03:22:00;96250;;;5.2;78.6
23253;BME280;11795;47.054;15.408;2023-03-07T03:24:03;96250;;;5.2;78.2
23253;BME280;11795;47.054;15.408;2023-03-07T03:26:02;96250;;;5.1;79.1
23253;BME280;11795;47.054;15.408;2023-03-07T03:28:00;96250;;;5.3;78.7
23253;BME280;11795;47.054;15.408;2023-03-07T03:30:00;96250;;;5.2;79.3
23253;BME280;11795;47.054;15.408;2023-03-07T03:32:01;96250;;;5.2;79.2
23253;BME280;11795;47.054;15.408;2023-03-07T03:34:01;96240;;;5.2;78.9
23253;BME280;11795;47.054;15.408;2023-03-07T03:36:05;96250;;;5.1;79.3
23253;BME280;11795;47.054;15.408;2023-03-07T03:38:00;96250;;;5.3;78.9
23253;BME280;11795;47.054;15.408;2023-03-07T03:40:00;96250;;;5.1;79.6
23253;BME280;11795;47.054;15.408;2023-03-07T03:42:00;96260;;;5.1;80.3
23253;BME280;11795;47.054;15.408;2023-03-07T03:44:00;96250;;;5.2;80.0
23253;BME280;11795;47.054;15.408;2023-03-07T03:46:00;96250;;;5.1;80.6
23253;BME280;11795;47.054;15.408;2023-03-07T03:48:00;96250;;;5.3;79.8
23253;BME280;11795;47.054;15.408;2023-03-07T03:50:00;96250;;;5.1;80.3
23253;BME280;11795;47.054;15.408;2023-03-07T03:52:00;96250;;;5.1;80.8
23253;BME280;11795;47.054;15.408;2023-03-07T03:54:00;96240;;;5.2;80.3
23253;BME280;11795;47.054;15.408;2023-03-07T03:56:02;96240;;;5.1;80.7
23253;BME280;11795;47.054;15.408;2023-03-07T03:58:00;96240;;;5.3;80.1
23253;BME280;11795;47.054;15.408;2023-03-07T04:00:00;96230;;;5.1;80.5
23253;BME280;11795;47.054;15.408;2023-03-07T04:02:00;96240;;;5.1;80.8
23253;BME280;11795;47.054;15.408;2023-03-07T04:04:00;96240;;;5.2;80.4
23253;BME280;11795;47.054;15.408;2023-03-07T04:06:01;96240;;;5.0;81.0
23253;BME280;11795;47.054;15.408;2023-03-07T04:08:00;96230;;;5.2;80.5
23253;BME280;11795;47.054;15.408;2023-03-07T04:10:00;96240;;;5.1;81.0
23253;BME280;11795;47.054;15.408;2023-03-07T04:12:00;96240;;;5.0;81.4
23253;BME280;11795;47.054;15.408;2023-03-07T04:14:01;96240;;;5.2;80.7
23253;BME280;11795;47.054;15.408;2023-03-07T04:16:01;96240;;;5.1;81.2
23253;BME280;11795;47.054;15.408;2023-03-07T04:18:00;96240;;;5.3;80.8
23253;BME280;11795;47.054;15.408;2023-03-07T04:20:00;96230;;;5.1;81.2
23253;BME280;11795;47.054;15.408;2023-03-07T04:22:00;96230;;;5.1;81.4
23253;BME280;11795;47.054;15.408;2023-03-07T04:24:00;96230;;;5.1;81.0
23253;BME280;11795;47.054;15.408;2023-03-07T04:26:02;96230;;;5.1;81.4
23253;BME280;11795;47.054;15.408;2023-03-07T04:28:01;96240;;;5.2;80.9
23253;BME280;11795;47.054;15.408;2023-03-07T04:30:00;96240;;;5.1;81.2
23253;BME280;11795;47.054;15.408;2023-03-07T04:32:00;96230;;;5.0;81.6
23253;BME280;11795;47.054;15.408;2023-03-07T04:34:00;96240;;;5.1;81.4
23253;BME280;11795;47.054;15.408;2023-03-07T04:36:00;96240;;;5.0;81.9
23253;BME280;11795;47.054;15.408;2023-03-07T04:38:00;96240;;;5.2;81.4
23253;BME280;11795;47.054;15.408;2023-03-07T04:40:00;96240;;;5.1;82.0
23253;BME280;11795;47.054;15.408;2023-03-07T04:42:00;96250;;;5.0;82.3
23253;BME280;11795;47.054;15.408;2023-03-07T04:44:00;96250;;;5.2;81.7
23253;BME280;11795;47.054;15.408;2023-03-07T04:46:01;96250;;;5.1;82.2
23253;BME280;11795;47.054;15.408;2023-03-07T04:48:00;96250;;;5.2;81.9
23253;BME280;11795;47.054;15.408;2023-03-07T04:50:00;96250;;;5.1;82.2
23253;BME280;11795;47.054;15.408;2023-03-07T04:52:00;96250;;;5.0;82.7
23253;BME280;11795;47.054;15.408;2023-03-07T04:54:00;96250;;;5.1;82.5
23253;BME280;11795;47.054;15.408;2023-03-07T04:56:02;96250;;;5.0;82.9
23253;BME280;11795;47.054;15.408;2023-03-07T04:58:00;96250;;;5.2;82.4
23253;BME280;11795;47.054;15.408;2023-03-07T05:00:00;96250;;;5.0;82.8
23253;BME280;11795;47.054;15.408;2023-03-07T05:02:00;96250;;;5.0;83.2
23253;BME280;11795;47.054;15.408;2023-03-07T05:04:00;96250;;;5.1;82.7
23253;BME280;11795;47.054;15.408;2023-03-07T05:06:02;96250;;;5.0;83.3
23253;BME280;11795;47.054;15.408;2023-03-07T05:08:00;96260;;;5.2;82.8
23253;BME280;11795;47.054;15.408;2023-03-07T05:10:00;96260;;;5.0;83.2
23253;BME280;11795;47.054;15.408;2023-03-07T05:12:00;96250;;;5.0;83.6
23253;BME280;11795;47.054;15.408;2023-03-07T05:14:00;96250;;;5.1;83.0
23253;BME280;11795;47.054;15.408;2023-03-07T05:16:00;96250;;;5.0;83.3
23253;BME280;11795;47.054;15.408;2023-03-07T05:18:00;96260;;;5.2;82.9
23253;BME280;11795;47.054;15.408;2023-03-07T05:20:01;96260;;;5.0;83.4
23253;BME280;11795;47.054;15.408;2023-03-07T05:22:01;96260;;;5.0;84.0
23253;BME280;11795;47.054;15.408;2023-03-07T05:24:01;96260;;;5.1;83.6
23253;BME280;11795;47.054;15.408;2023-03-07T05:26:00;96260;;;5.0;84.3
23253;BME280;11795;47.054;15.408;2023-03-07T05:28:01;96250;;;5.2;84.0
23253;BME280;11795;47.054;15.408;2023-03-07T05:30:01;96250;;;5.0;84.2
23253;BME280;11795;47.054;15.408;2023-03-07T05:32:01;96250;;;4.9;84.7
23253;BME280;11795;47.054;15.408;2023-03-07T05:34:00;96250;;;5.0;84.2
23253;BME280;11795;47.054;15.408;2023-03-07T05:36:00;96250;;;4.9;84.6
23253;BME280;11795;47.054;15.408;2023-03-07T05:38:00;96250;;;5.2;84.1
23253;BME280;11795;47.054;15.408;2023-03-07T05:40:01;96260;;;5.0;84.3
23253;BME280;11795;47.054;15.408;2023-03-07T05:42:00;96260;;;4.9;84.6
23253;BME280;11795;47.054;15.408;2023-03-07T05:44:00;96260;;;4.9;84.2
23253;BME280;11795;47.054;15.408;2023-03-07T05:46:00;96260;;;4.8;84.6
23253;BME280;11795;47.054;15.408;2023-03-07T05:48:00;96260;;;4.9;83.9
23253;BME280;11795;47.054;15.408;2023-03-07T05:50:00;96260;;;4.7;84.1
23253;BME280;11795;47.054;15.408;2023-03-07T05:52:01;96260;;;4.7;84.6
23253;BME280;11795;47.054;15.408;2023-03-07T05:54:00;96260;;;4.7;83.9
23253;BME280;11795;47.054;15.408;2023-03-07T05:56:00;96260;;;4.7;84.4
23253;BME280;11795;47.054;15.408;2023-03-07T05:58:00;96260;;;4.8;84.0
23253;BME280;11795;47.054;15.408;2023-03-07T06:00:00;96260;;;4.7;84.2
23253;BME280;11795;47.054;15.408;2023-03-07T06:02:00;96260;;;4.6;84.5
23253;BME280;11795;47.054;15.408;2023-03-07T06:04:00;96260;;;4.8;84.0
23253;BME280;11795;47.054;15.408;2023-03-07T06:06:00;96260;;;4.6;84.8
23253;BME280;11795;47.054;15.408;2023-03-07T06:08:00;96260;;;4.8;84.2
23253;BME280;11795;47.054;15.408;2023-03-07T06:10:00;96260;;;4.8;84.1
23253;BME280;11795;47.054;15.408;2023-03-07T06:12:00;96270;;;4.7;84.3
23253;BME280;11795;47.054;15.408;2023-03-07T06:14:00;96270;;;4.8;83.8
23253;BME280;11795;47.054;15.408;2023-03-07T06:16:01;96270;;;4.8;84.1
23253;BME280;11795;47.054;15.408;2023-03-07T06:18:00;96260;;;4.9;83.6
23253;BME280;11795;47.054;15.408;2023-03-07T06:20:00;96270;;;4.8;83.6
23253;BME280;11795;47.054;15.408;2023-03-07T06:22:01;96260;;;4.8;83.8
23253;BME280;11795;47.054;15.408;2023-03-07T06:24:00;96270;;;4.9;83.1
23253;BME280;11795;47.054;15.408;2023-03-07T06:26:01;96270;;;4.8;83.4
23253;BME280;11795;47.054;15.408;2023-03-07T06:28:01;96260;;;5.0;82.9
23253;BME280;11795;47.054;15.408;2023-03-07T06:30:01;96270;;;4.8;83.1
23253;BME280;11795;47.054;15.408;2023-03-07T06:32:00;96270;;;4.6;83.7
23253;BME280;11795;47.054;15.408;2023-03-07T06:34:00;96270;;;4.7;83.4
23253;BME280;11795;47.054;15.408;2023-03-07T06:36:03;96270;;;4.7;83.9
23253;BME280;11795;47.054;15.408;2023-03-07T06:38:01;96270;;;4.8;83.5
23253;BME280;11795;47.054;15.408;2023-03-07T06:40:06;96270;;;4.7;84.1
23253;BME280;11795;47.054;15.408;2023-03-07T06:42:00;96270;;;4.6;84.4
23253;BME280;11795;47.054;15.408;2023-03-07T06:44:00;96270;;;4.8;83.9
23253;BME280;11795;47.054;15.408;2023-03-07T06:46:01;96270;;;4.6;84.6
23253;BME280;11795;47.054;15.408;2023-03-07T06:48:00;96270;;;4.9;84.2
23253;BME280;11795;47.054;15.408;2023-03-07T06:50:01;96280;;;4.8;84.2
23253;BME280;11795;47.054;15.408;2023-03-07T06:52:00;96280;;;4.8;84.1
23253;BME280;11795;47.054;15.408;2023-03-07T06:54:00;96280;;;4.9;83.3
23253;BME280;11795;47.054;15.408;2023-03-07T06:56:00;96280;;;4.8;83.6
23253;BME280;11795;47.054;15.408;2023-03-07T06:58:00;96280;;;4.9;83.4
23253;BME280;11795;47.054;15.408;2023-03-07T07:00:01;96280;;;5.0;82.7
23253;BME280;11795;47.054;15.408;2023-03-07T07:02:00;96280;;;4.9;83.0
23253;BME280;11795;47.054;15.408;2023-03-07T07:04:00;96280;;;4.8;82.9
23253;BME280;11795;47.054;15.408;2023-03-07T07:06:02;96280;;;4.8;83.2
23253;BME280;11795;47.054;15.408;2023-03-07T07:08:00;96290;;;4.9;83.4
23253;BME280;11795;47.054;15.408;2023-03-07T07:10:01;96290;;;4.7;84.2
23253;BME280;11795;47.054;15.408;2023-03-07T07:12:00;96280;;;4.6;84.7
23253;BME280;11795;47.054;15.408;2023-03-07T07:14:00;96280;;;4.7;84.3
23253;BME280;11795;47.054;15.408;2023-03-07T07:16:04;96290;;;4.7;85.0
23253;BME280;11795;47.054;15.408;2023-03-07T07:18:00;96290;;;4.9;84.8
23253;BME280;11795;47.054;15.408;2023-03-07T07:20:00;96290;;;4.8;85.0
23253;BME280;11795;47.054;15.408;2023-03-07T07:22:00;96290;;;4.8;85.4
23253;BME280;11795;47.054;15.408;2023-03-07T07:24:00;96300;;;4.9;85.1
23253;BME280;11795;47.054;15.408;2023-03-07T07:26:00;96300;;;4.8;85.3
23253;BME280;11795;47.054;15.408;2023-03-07T07:28:00;96300;;;5.0;84.8
23253;BME280;11795;47.054;15.408;2023-03-07T07:30:00;96300;;;4.8;85.0
23253;BME280;11795;47.054;15.408;2023-03-07T07:32:00;96300;;;4.8;85.3
23253;BME280;11795;47.054;15.408;2023-03-07T07:34:00;96300;;;4.9;84.8
23253;BME280;11795;47.054;15.408;2023-03-07T07:36:00;96300;;;4.8;85.2
23253;BME280;11795;47.054;15.408;2023-03-07T07:38:00;96300;;;4.9;84.9
23253;BME280;11795;47.054;15.408;2023-03-07T07:40:00;96300;;;4.8;85.1
23253;BME280;11795;47.054;15.408;2023-03-07T07:42:00;96300;;;4.7;85.4
23253;BME280;11795;47.054;15.408;2023-03-07T07:44:01;96300;;;4.8;85.0
23253;BME280;11795;47.054;15.408;2023-03-07T07:46:02;96300;;;4.7;85.2
23253;BME280;11795;47.054;15.408;2023-03-07T07:48:00;96300;;;4.9;84.6
23253;BME280;11795;47.054;15.408;2023-03-07T07:50:00;96300;;;4.8;84.9
23253;BME280;11795;47.054;15.408;2023-03-07T07:52:00;96310;;;4.7;85.0
23253;BME280;11795;47.054;15.408;2023-03-07T07:54:00;96300;;;4.9;84.5
23253;BME280;11795;47.054;15.408;2023-03-07T07:56:00;96310;;;4.8;84.8
23253;BME280;11795;47.054;15.408;2023-03-07T07:58:00;96310;;;5.0;84.4
23253;BME280;11795;47.054;15.408;2023-03-07T08:00:00;96310;;;4.9;84.5
23253;BME280;11795;47.054;15.408;2023-03-07T08:02:00;96310;;;4.8;84.6
23253;BME280;11795;47.054;15.408;2023-03-07T08:04:00;96310;;;4.9;83.9
23253;BME280;11795;47.054;15.408;2023-03-07T08:06:00;96320;;;4.8;84.3
23253;BME280;11795;47.054;15.408;2023-03-07T08:08:00;96320;;;5.0;83.7
23253;BME280;11795;47.054;15.408;2023-03-07T08:10:00;96310;;;4.8;83.7
23253;BME280;11795;47.054;15.408;2023-03-07T08:12:00;96310;;;4.7;84.2
23253;BME280;11795;47.054;15.408;2023-03-07T08:14:00;96310;;;4.8;83.8
23253;BME280;11795;47.054;15.408;2023-03-07T08:16:07;96310;;;4.7;84.3
23253;BME280;11795;47.054;15.408;2023-03-07T08:18:00;96310;;;4.9;84.0
23253;BME280;11795;47.054;15.408;2023-03-07T08:20:08;96310;;;4.8;84.2
23253;BME280;11795;47.054;15.408;2023-03-07T08:22:01;96310;;;4.8;84.4
23253;BME280;11795;47.054;15.408;2023-03-07T08:24:01;96310;;;4.9;83.6
23253;BME280;11795;47.054;15.408;2023-03-07T08:26:01;96310;;;4.8;83.7
23253;BME280;11795;47.054;15.408;2023-03-07T08:28:02;96310;;;4.9;83.6
23253;BME280;11795;47.054;15.408;2023-03-07T08:30:01;96310;;;4.8;83.8
23253;BME280;11795;47.054;15.408;2023-03-07T08:32:01;96300;;;4.7;84.3
23253;BME280;11795;47.054;15.408;2023-03-07T08:34:00;96290;;;4.9;83.5
23253;BME280;11795;47.054;15.408;2023-03-07T08:36:01;96300;;;4.7;84.1
23253;BME280;11795;47.054;15.408;2023-03-07T08:38:00;96310;;;4.9;84.1
23253;BME280;11795;47.054;15.408;2023-03-07T08:40:01;96300;;;4.8;84.2
23253;BME280;11795;47.054;15.408;2023-03-07T08:42:01;96300;;;4.7;84.6
23253;BME280;11795;47.054;15.408;2023-03-07T08:44:00;96300;;;4.9;84.0
23253;BME280;11795;47.054;15.408;2023-03-07T08:46:01;96290;;;4.8;84.3
23253;BME280;11795;47.054;15.408;2023-03-07T08:48:00;96290;;;4.9;84.6
23253;BME280;11795;47.054;15.408;2023-03-07T08:50:00;96290;;;4.8;84.7
23253;BME280;11795;47.054;15.408;2023-03-07T08:52:00;96300;;;4.8;85.0
23253;BME280;11795;47.054;15.408;2023-03-07T08:54:00;96300;;;4.8;83.8
23253;BME280;11795;47.054;15.408;2023-03-07T08:56:05;96300;;;4.7;84.6
23253;BME280;11795;47.054;15.408;2023-03-07T08:58:00;96290;;;4.9;84.5
23253;BME280;11795;47.054;15.408;2023-03-07T09:00:00;96290;;;4.9;84.2
23253;BME280;11795;47.054;15.408;2023-03-07T09:02:00;96290;;;4.8;84.3
23253;BME280;11795;47.054;15.408;2023-03-07T09:04:00;96290;;;4.8;84.3
23253;BME280;11795;47.054;15.408;2023-03-07T09:06:01;96290;;;4.7;84.9
23253;BME280;11795;47.054;15.408;2023-03-07T09:08:00;96300;;;4.9;85.0
23253;BME280;11795;47.054;15.408;2023-03-07T09:10:00;96290;;;4.8;85.1
23253;BME280;11795;47.054;15.408;2023-03-07T09:12:00;96290;;;4.7;85.7
23253;BME280;11795;47.054;15.408;2023-03-07T09:14:00;96300;;;4.7;85.2
23253;BME280;11795;47.054;15.408;2023-03-07T09:16:03;96300;;;4.7;85.8
23253;BME280;11795;47.054;15.408;2023-03-07T09:18:00;96300;;;4.9;85.5
23253;BME280;11795;47.054;15.408;2023-03-07T09:20:00;96300;;;4.9;85.3
23253;BME280;11795;47.054;15.408;2023-03-07T09:22:00;96300;;;4.8;85.4
23253;BME280;11795;47.054;15.408;2023-03-07T09:24:00;96300;;;4.9;85.0
23253;BME280;11795;47.054;15.408;2023-03-07T09:26:01;96300;;;4.8;85.2
23253;BME280;11795;47.054;15.408;2023-03-07T09:28:00;96300;;;5.0;85.2
23253;BME280;11795;47.054;15.408;2023-03-07T09:30:01;96300;;;4.8;84.8
23253;BME280;11795;47.054;15.408;2023-03-07T09:32:01;96300;;;4.8;85.2
23253;BME280;11795;47.054;15.408;2023-03-07T09:34:00;96300;;;4.9;85.1
23253;BME280;11795;47.054;15.408;2023-03-07T09:36:03;96300;;;4.8;85.2
23253;BME280;11795;47.054;15.408;2023-03-07T09:38:00;96290;;;4.9;85.1
23253;BME280;11795;47.054;15.408;2023-03-07T09:40:00;96290;;;4.8;85.1
23253;BME280;11795;47.054;15.408;2023-03-07T09:42:10;96300;;;4.8;85.3
23253;BME280;11795;47.054;15.408;2023-03-07T09:44:07;96290;;;4.8;84.9
23253;BME280;11795;47.054;15.408;2023-03-07T09:46:06;96290;;;4.7;85.6
23253;BME280;11795;47.054;15.408;2023-03-07T09:48:19;96290;;;4.9;85.7
23253;BME280;11795;47.054;15.408;2023-03-07T09:50:02;96290;;;4.8;85.7
23253;BME280;11795;47.054;15.408;2023-03-07T09:52:01;96290;;;4.8;85.9
23253;BME280;11795;47.054;15.408;2023-03-07T09:54:04;96280;;;4.9;85.5
23253;BME280;11795;47.054;15.408;2023-03-07T09:56:03;96290;;;4.8;85.8
23253;BME280;11795;47.054;15.408;2023-03-07T09:58:06;96280;;;4.9;85.5
23253;BME280;11795;47.054;15.408;2023-03-07T10:00:03;96290;;;4.9;85.4
23253;BME280;11795;47.054;15.408;2023-03-07T10:02:04;96290;;;4.8;85.2
23253;BME280;11795;47.054;15.408;2023-03-07T10:04:02;96280;;;4.6;85.7
23253;BME280;11795;47.054;15.408;2023-03-07T10:06:04;96280;;;4.6;86.4
23253;BME280;11795;47.054;15.408;2023-03-07T10:08:01;96270;;;4.7;86.3
23253;BME280;11795;47.054;15.408;2023-03-07T10:10:04;96270;;;4.5;86.8
23253;BME280;11795;47.054;15.408;2023-03-07T10:12:12;96260;;;4.5;87.0
23253;BME280;11795;47.054;15.408;2023-03-07T10:14:11;96260;;;4.8;86.2
23253;BME280;11795;47.054;15.408;2023-03-07T10:16:04;96260;;;4.7;86.4
23253;BME280;11795;47.054;15.408;2023-03-07T10:18:11;96260;;;4.8;86.3
23253;BME280;11795;47.054;15.408;2023-03-07T10:20:06;96260;;;4.8;86.1
23253;BME280;11795;47.054;15.408;2023-03-07T10:22:04;96260;;;4.8;85.5
23253;BME280;11795;47.054;15.408;2023-03-07T10:24:09;96260;;;4.8;84.9
23253;BME280;11795;47.054;15.408;2023-03-07T10:26:08;96260;;;4.7;85.5
23253;BME280;11795;47.054;15.408;2023-03-07T10:28:12;96260;;;4.9;85.3
23253;BME280;11795;47.054;15.408;2023-03-07T10:30:10;96260;;;4.8;85.0
23253;BME280;11795;47.054;15.408;2023-03-07T10:32:10;96260;;;4.7;84.7
23253;BME280;11795;47.054;15.408;2023-03-07T10:34:12;96260;;;4.8;84.0
23253;BME280;11795;47.054;15.408;2023-03-07T10:36:05;96260;;;4.8;84.2
23253;BME280;11795;47.054;15.408;2023-03-07T10:38:05;96260;;;4.9;83.8
23253;BME280;11795;47.054;15.408;2023-03-07T10:40:01;96260;;;4.8;83.6
23253;BME280;11795;47.054;15.408;2023-03-07T10:42:01;96260;;;4.9;83.6
23253;BME280;11795;47.054;15.408;2023-03-07T10:44:00;96260;;;5.0;82.5
23253;BME280;11795;47.054;15.408;2023-03-07T10:46:10;96250;;;4.8;82.0
23253;BME280;11795;47.054;15.408;2023-03-07T10:48:05;96250;;;5.0;81.8
23253;BME280;11795;47.054;15.408;2023-03-07T10:50:16;96250;;;4.8;81.7
23253;BME280;11795;47.054;15.408;2023-03-07T10:52:04;96240;;;4.9;81.8
23253;BME280;11795;47.054;15.408;2023-03-07T10:54:01;96250;;;5.0;80.9
23253;BME280;11795;47.054;15.408;2023-03-07T10:56:08;96250;;;4.9;81.1
23253;BME280;11795;47.054;15.408;2023-03-07T10:58:11;96240;;;5.0;81.3
23253;BME280;11795;47.054;15.408;2023-03-07T11:00:13;96240;;;4.9;80.6
23253;BME280;11795;47.054;15.408;2023-03-07T11:02:01;96240;;;4.9;81.1
23253;BME280;11795;47.054;15.408;2023-03-07T11:04:02;96240;;;5.1;80.3
23253;BME280;11795;47.054;15.408;2023-03-07T11:06:01;96240;;;4.9;80.9
23253;BME280;11795;47.054;15.408;2023-03-07T11:08:19;96230;;;5.1;81.0
23253;BME280;11795;47.054;15.408;2023-03-07T11:12:11;96220;;;5.0;80.5
23253;BME280;11795;47.054;15.408;2023-03-07T11:14:06;96230;;;5.2;80.4
23253;BME280;11795;47.054;15.408;2023-03-07T11:16:14;96220;;;5.1;80.6
23253;BME280;11795;47.054;15.408;2023-03-07T11:18:00;96220;;;5.2;80.7
23253;BME280;11795;47.054;15.408;2023-03-07T11:20:02;96220;;;5.1;80.5
23253;BME280;11795;47.054;15.408;2023-03-07T11:22:02;96220;;;5.0;80.7
23253;BME280;11795;47.054;15.408;2023-03-07T11:24:03;96220;;;5.0;80.6